sensor_id;sensor_type;location;lat;lon;timestamp;P1;durP1;ratioP1;P2;durP2;ratioP2
1446;SDS011;717;51.522;7.266;2023-01-01T00:01:58;11.52;;;7.20;;
1446;SDS011;717;51.522;7.266;2023-01-01T00:04:26;10.70;;;6.97;;
1446;SDS011;717;51.522;7.266;2023-01-01T00:06:56;13.32;;;7.40;;
1446;SDS011;717;51.522;7.266;2023-01-01T00:09:25;10.18;;;6.20;;
1446;SDS011;717;51.522;7.266;2023-01-01T00:12:08;10.52;;;5.80;;
1446;SDS011;717;51.522;7.266;2023-01-01T00:14:37;8.18;;;6.65;;
1446;SDS011;717;51.522;7.266;2023-01-01T00:17:08;10.18;;;6.10;;
1446;SDS011;717;51.522;7.266;2023-01-01T00:19:37;11.02;;;6.72;;
1446;SDS011;717;51.522;7.266;2023-01-01T00:22:05;8.70;;;6.45;;
1446;SDS011;717;51.522;7.266;2023-01-01T00:24:33;10.20;;;5.88;;
1446;SDS011;717;51.522;7.266;2023-01-01T00:27:02;10.82;;;6.78;;
1446;SDS011;717;51.522;7.266;2023-01-01T00:29:33;10.77;;;6.25;;
1446;SDS011;717;51.522;7.266;2023-01-01T00:32:02;12.10;;;7.82;;
1446;SDS011;717;51.522;7.266;2023-01-01T00:34:31;13.82;;;8.95;;
1446;SDS011;717;51.522;7.266;2023-01-01T00:36:59;12.43;;;8.32;;
1446;SDS011;717;51.522;7.266;2023-01-01T00:39:28;13.57;;;9.07;;
1446;SDS011;717;51.522;7.266;2023-01-01T00:41:56;13.88;;;9.27;;
1446;SDS011;717;51.522;7.266;2023-01-01T00:44:24;11.13;;;9.40;;
1446;SDS011;717;51.522;7.266;2023-01-01T00:46:55;14.52;;;9.60;;
1446;SDS011;717;51.522;7.266;2023-01-01T00:49:24;15.65;;;9.98;;
1446;SDS011;717;51.522;7.266;2023-01-01T00:51:53;11.30;;;9.45;;
1446;SDS011;717;51.522;7.266;2023-01-01T00:54:21;12.18;;;10.20;;
1446;SDS011;717;51.522;7.266;2023-01-01T00:56:50;13.50;;;10.25;;
1446;SDS011;717;51.522;7.266;2023-01-01T00:59:18;16.13;;;10.60;;
1446;SDS011;717;51.522;7.266;2023-01-01T01:01:46;14.48;;;10.82;;
1446;SDS011;717;51.522;7.266;2023-01-01T01:04:18;15.43;;;10.63;;
1446;SDS011;717;51.522;7.266;2023-01-01T01:06:46;13.20;;;10.30;;
1446;SDS011;717;51.522;7.266;2023-01-01T01:09:15;13.25;;;10.20;;
1446;SDS011;717;51.522;7.266;2023-01-01T01:11:43;14.45;;;9.85;;
1446;SDS011;717;51.522;7.266;2023-01-01T01:14:12;11.75;;;9.30;;
1446;SDS011;717;51.522;7.266;2023-01-01T01:16:40;9.65;;;8.63;;
1446;SDS011;717;51.522;7.266;2023-01-01T01:19:09;12.10;;;9.05;;
1446;SDS011;717;51.522;7.266;2023-01-01T01:21:45;9.32;;;7.53;;
1446;SDS011;717;51.522;7.266;2023-01-01T01:24:15;10.07;;;7.53;;
1446;SDS011;717;51.522;7.266;2023-01-01T01:26:43;10.98;;;7.03;;
1446;SDS011;717;51.522;7.266;2023-01-01T01:29:12;10.40;;;6.90;;
1446;SDS011;717;51.522;7.266;2023-01-01T01:31:40;10.90;;;6.60;;
1446;SDS011;717;51.522;7.266;2023-01-01T01:34:09;10.07;;;6.82;;
1446;SDS011;717;51.522;7.266;2023-01-01T01:36:39;8.18;;;7.03;;
1446;SDS011;717;51.522;7.266;2023-01-01T01:39:12;10.50;;;6.63;;
1446;SDS011;717;51.522;7.266;2023-01-01T01:41:40;9.95;;;6.50;;
1446;SDS011;717;51.522;7.266;2023-01-01T01:47:07;11.00;;;6.03;;
1446;SDS011;717;51.522;7.266;2023-01-01T01:49:41;7.40;;;5.80;;
1446;SDS011;717;51.522;7.266;2023-01-01T01:52:12;7.32;;;4.90;;
1446;SDS011;717;51.522;7.266;2023-01-01T01:54:43;7.18;;;5.25;;
1446;SDS011;717;51.522;7.266;2023-01-01T01:57:12;8.85;;;4.60;;
1446;SDS011;717;51.522;7.266;2023-01-01T01:59:43;6.18;;;4.57;;
1446;SDS011;717;51.522;7.266;2023-01-01T02:02:17;4.95;;;4.15;;
1446;SDS011;717;51.522;7.266;2023-01-01T02:04:53;4.70;;;3.40;;
1446;SDS011;717;51.522;7.266;2023-01-01T02:07:23;6.28;;;3.75;;
1446;SDS011;717;51.522;7.266;2023-01-01T02:09:55;4.07;;;3.33;;
1446;SDS011;717;51.522;7.266;2023-01-01T02:12:24;4.05;;;2.60;;
1446;SDS011;717;51.522;7.266;2023-01-01T02:14:54;7.00;;;3.22;;
1446;SDS011;717;51.522;7.266;2023-01-01T02:17:23;6.30;;;2.55;;
1446;SDS011;717;51.522;7.266;2023-01-01T02:20:02;6.15;;;2.45;;
1446;SDS011;717;51.522;7.266;2023-01-01T02:23:01;3.70;;;2.53;;
1446;SDS011;717;51.522;7.266;2023-01-01T02:25:46;2.42;;;2.22;;
1446;SDS011;717;51.522;7.266;2023-01-01T02:28:32;4.65;;;2.25;;
1446;SDS011;717;51.522;7.266;2023-01-01T02:31:08;3.13;;;2.30;;
1446;SDS011;717;51.522;7.266;2023-01-01T02:33:38;3.65;;;1.80;;
1446;SDS011;717;51.522;7.266;2023-01-01T02:36:09;2.80;;;1.80;;
1446;SDS011;717;51.522;7.266;2023-01-01T02:38:40;2.95;;;1.55;;
1446;SDS011;717;51.522;7.266;2023-01-01T02:41:13;4.45;;;2.20;;
1446;SDS011;717;51.522;7.266;2023-01-01T02:43:49;2.63;;;1.58;;
1446;SDS011;717;51.522;7.266;2023-01-01T02:46:18;3.67;;;1.50;;
1446;SDS011;717;51.522;7.266;2023-01-01T02:48:47;2.47;;;1.30;;
1446;SDS011;717;51.522;7.266;2023-01-01T02:51:21;4.20;;;1.27;;
1446;SDS011;717;51.522;7.266;2023-01-01T02:53:58;2.97;;;1.38;;
1446;SDS011;717;51.522;7.266;2023-01-01T02:56:33;2.65;;;1.35;;
1446;SDS011;717;51.522;7.266;2023-01-01T02:59:16;4.47;;;1.20;;
1446;SDS011;717;51.522;7.266;2023-01-01T03:02:03;2.50;;;1.05;;
1446;SDS011;717;51.522;7.266;2023-01-01T03:04:40;2.97;;;1.58;;
1446;SDS011;717;51.522;7.266;2023-01-01T03:07:18;3.30;;;1.25;;
1446;SDS011;717;51.522;7.266;2023-01-01T03:09:54;3.33;;;1.20;;
1446;SDS011;717;51.522;7.266;2023-01-01T03:12:30;4.03;;;1.10;;
1446;SDS011;717;51.522;7.266;2023-01-01T03:15:12;4.15;;;1.17;;
1446;SDS011;717;51.522;7.266;2023-01-01T03:17:48;2.08;;;0.98;;
1446;SDS011;717;51.522;7.266;2023-01-01T03:20:23;5.50;;;1.40;;
1446;SDS011;717;51.522;7.266;2023-01-01T03:22:54;3.20;;;1.30;;
1446;SDS011;717;51.522;7.266;2023-01-01T03:25:30;3.47;;;0.90;;
1446;SDS011;717;51.522;7.266;2023-01-01T03:28:02;1.30;;;0.95;;
1446;SDS011;717;51.522;7.266;2023-01-01T03:30:36;4.47;;;1.50;;
1446;SDS011;717;51.522;7.266;2023-01-01T03:33:07;2.45;;;1.20;;
1446;SDS011;717;51.522;7.266;2023-01-01T03:35:41;6.43;;;1.25;;
1446;SDS011;717;51.522;7.266;2023-01-01T03:38:14;1.77;;;0.90;;
1446;SDS011;717;51.522;7.266;2023-01-01T03:40:47;2.80;;;1.08;;
1446;SDS011;717;51.522;7.266;2023-01-01T03:43:18;1.70;;;0.90;;
1446;SDS011;717;51.522;7.266;2023-01-01T03:45:53;4.78;;;1.20;;
1446;SDS011;717;51.522;7.266;2023-01-01T03:48:23;2.10;;;0.98;;
1446;SDS011;717;51.522;7.266;2023-01-01T03:50:55;1.90;;;0.80;;
1446;SDS011;717;51.522;7.266;2023-01-01T03:53:32;2.30;;;0.98;;
1446;SDS011;717;51.522;7.266;2023-01-01T03:56:07;2.08;;;1.10;;
1446;SDS011;717;51.522;7.266;2023-01-01T03:58:41;2.08;;;0.88;;
1446;SDS011;717;51.522;7.266;2023-01-01T04:01:20;1.23;;;0.68;;
1446;SDS011;717;51.522;7.266;2023-01-01T04:03:52;2.28;;;0.93;;
1446;SDS011;717;51.522;7.266;2023-01-01T04:06:22;2.50;;;0.90;;
1446;SDS011;717;51.522;7.266;2023-01-01T04:08:52;4.35;;;0.98;;
1446;SDS011;717;51.522;7.266;2023-01-01T04:11:24;4.25;;;0.90;;
1446;SDS011;717;51.522;7.266;2023-01-01T04:14:07;2.97;;;1.00;;
1446;SDS011;717;51.522;7.266;2023-01-01T04:16:38;2.38;;;1.10;;
1446;SDS011;717;51.522;7.266;2023-01-01T04:19:07;3.33;;;1.02;;
1446;SDS011;717;51.522;7.266;2023-01-01T04:21:35;2.95;;;0.95;;
1446;SDS011;717;51.522;7.266;2023-01-01T04:24:04;8.48;;;1.33;;
1446;SDS011;717;51.522;7.266;2023-01-01T04:26:34;1.40;;;1.00;;
1446;SDS011;717;51.522;7.266;2023-01-01T04:29:02;1.58;;;0.70;;
1446;SDS011;717;51.522;7.266;2023-01-01T04:31:31;2.28;;;0.80;;
1446;SDS011;717;51.522;7.266;2023-01-01T04:34:03;2.47;;;0.82;;
1446;SDS011;717;51.522;7.266;2023-01-01T04:36:32;1.80;;;0.90;;
1446;SDS011;717;51.522;7.266;2023-01-01T04:39:01;2.70;;;0.90;;
1446;SDS011;717;51.522;7.266;2023-01-01T04:41:30;2.80;;;1.27;;
1446;SDS011;717;51.522;7.266;2023-01-01T04:43:59;3.63;;;1.20;;
1446;SDS011;717;51.522;7.266;2023-01-01T04:46:28;2.08;;;0.75;;
1446;SDS011;717;51.522;7.266;2023-01-01T04:48:56;3.45;;;1.10;;
1446;SDS011;717;51.522;7.266;2023-01-01T04:51:27;2.80;;;0.77;;
1446;SDS011;717;51.522;7.266;2023-01-01T04:53:57;2.45;;;0.95;;
1446;SDS011;717;51.522;7.266;2023-01-01T04:56:26;3.17;;;1.10;;
1446;SDS011;717;51.522;7.266;2023-01-01T04:58:55;2.47;;;0.90;;
1446;SDS011;717;51.522;7.266;2023-01-01T05:01:24;1.23;;;0.82;;
1446;SDS011;717;51.522;7.266;2023-01-01T05:03:54;3.85;;;0.88;;
1446;SDS011;717;51.522;7.266;2023-01-01T05:06:23;3.10;;;1.00;;
1446;SDS011;717;51.522;7.266;2023-01-01T05:08:55;2.70;;;1.05;;
1446;SDS011;717;51.522;7.266;2023-01-01T05:11:25;3.05;;;0.90;;
1446;SDS011;717;51.522;7.266;2023-01-01T05:13:56;2.13;;;1.05;;
1446;SDS011;717;51.522;7.266;2023-01-01T05:16:27;2.63;;;1.00;;
1446;SDS011;717;51.522;7.266;2023-01-01T05:19:00;4.07;;;1.20;;
1446;SDS011;717;51.522;7.266;2023-01-01T05:21:33;3.97;;;1.00;;
1446;SDS011;717;51.522;7.266;2023-01-01T05:24:03;4.40;;;0.93;;
1446;SDS011;717;51.522;7.266;2023-01-01T05:26:34;3.90;;;1.13;;
1446;SDS011;717;51.522;7.266;2023-01-01T05:29:04;3.55;;;1.08;;
1446;SDS011;717;51.522;7.266;2023-01-01T05:31:33;3.42;;;1.00;;
1446;SDS011;717;51.522;7.266;2023-01-01T05:34:02;3.67;;;1.10;;
1446;SDS011;717;51.522;7.266;2023-01-01T05:36:35;3.40;;;0.90;;
1446;SDS011;717;51.522;7.266;2023-01-01T05:39:05;3.38;;;1.00;;
1446;SDS011;717;51.522;7.266;2023-01-01T05:41:34;2.45;;;0.90;;
1446;SDS011;717;51.522;7.266;2023-01-01T05:44:03;3.22;;;1.20;;
1446;SDS011;717;51.522;7.266;2023-01-01T05:46:33;2.80;;;1.00;;
1446;SDS011;717;51.522;7.266;2023-01-01T05:49:01;3.03;;;0.90;;
1446;SDS011;717;51.522;7.266;2023-01-01T05:51:30;2.92;;;0.75;;
1446;SDS011;717;51.522;7.266;2023-01-01T05:54:01;3.53;;;1.13;;
1446;SDS011;717;51.522;7.266;2023-01-01T05:56:30;2.13;;;0.90;;
1446;SDS011;717;51.522;7.266;2023-01-01T05:58:58;2.55;;;0.88;;
1446;SDS011;717;51.522;7.266;2023-01-01T06:01:28;4.82;;;1.30;;
1446;SDS011;717;51.522;7.266;2023-01-01T06:03:58;2.90;;;1.08;;
1446;SDS011;717;51.522;7.266;2023-01-01T06:06:28;2.38;;;1.10;;
1446;SDS011;717;51.522;7.266;2023-01-01T06:09:01;2.58;;;1.20;;
1446;SDS011;717;51.522;7.266;2023-01-01T06:11:31;4.15;;;1.00;;
1446;SDS011;717;51.522;7.266;2023-01-01T06:14:01;2.33;;;0.98;;
1446;SDS011;717;51.522;7.266;2023-01-01T06:16:29;1.35;;;0.75;;
1446;SDS011;717;51.522;7.266;2023-01-01T06:18:58;0.90;;;0.90;;
1446;SDS011;717;51.522;7.266;2023-01-01T06:21:27;1.63;;;0.93;;
1446;SDS011;717;51.522;7.266;2023-01-01T06:23:56;3.20;;;0.82;;
1446;SDS011;717;51.522;7.266;2023-01-01T06:26:28;2.67;;;1.02;;
1446;SDS011;717;51.522;7.266;2023-01-01T06:28:58;2.13;;;0.93;;
1446;SDS011;717;51.522;7.266;2023-01-01T06:31:28;3.50;;;1.10;;
1446;SDS011;717;51.522;7.266;2023-01-01T06:33:57;2.58;;;1.00;;
1446;SDS011;717;51.522;7.266;2023-01-01T06:36:26;5.32;;;1.00;;
1446;SDS011;717;51.522;7.266;2023-01-01T06:38:55;2.88;;;0.77;;
1446;SDS011;717;51.522;7.266;2023-01-01T06:41:27;2.20;;;0.98;;
1446;SDS011;717;51.522;7.266;2023-01-01T06:43:56;3.22;;;1.52;;
1446;SDS011;717;51.522;7.266;2023-01-01T06:46:26;1.63;;;0.60;;
1446;SDS011;717;51.522;7.266;2023-01-01T06:48:56;3.38;;;0.90;;
1446;SDS011;717;51.522;7.266;2023-01-01T06:51:27;2.55;;;1.20;;
1446;SDS011;717;51.522;7.266;2023-01-01T06:53:57;2.50;;;1.10;;
1446;SDS011;717;51.522;7.266;2023-01-01T06:56:29;3.00;;;1.00;;
1446;SDS011;717;51.522;7.266;2023-01-01T06:58:58;3.83;;;1.58;;
1446;SDS011;717;51.522;7.266;2023-01-01T07:01:28;4.20;;;1.20;;
1446;SDS011;717;51.522;7.266;2023-01-01T07:04:00;3.03;;;1.00;;
1446;SDS011;717;51.522;7.266;2023-01-01T07:06:30;2.35;;;0.82;;
1446;SDS011;717;51.522;7.266;2023-01-01T07:08:59;2.40;;;1.00;;
1446;SDS011;717;51.522;7.266;2023-01-01T07:11:31;2.80;;;0.88;;
1446;SDS011;717;51.522;7.266;2023-01-01T07:13:59;3.42;;;1.05;;
1446;SDS011;717;51.522;7.266;2023-01-01T07:16:28;3.00;;;1.00;;
1446;SDS011;717;51.522;7.266;2023-01-01T07:18:57;3.58;;;0.70;;
1446;SDS011;717;51.522;7.266;2023-01-01T07:21:29;4.53;;;1.23;;
1446;SDS011;717;51.522;7.266;2023-01-01T07:23:59;2.58;;;0.80;;
1446;SDS011;717;51.522;7.266;2023-01-01T07:26:31;2.13;;;0.98;;
1446;SDS011;717;51.522;7.266;2023-01-01T07:29:00;2.35;;;1.00;;
1446;SDS011;717;51.522;7.266;2023-01-01T07:31:30;3.47;;;1.15;;
1446;SDS011;717;51.522;7.266;2023-01-01T07:33:58;2.17;;;0.85;;
1446;SDS011;717;51.522;7.266;2023-01-01T07:36:27;1.70;;;0.93;;
1446;SDS011;717;51.522;7.266;2023-01-01T07:38:55;3.22;;;1.08;;
1446;SDS011;717;51.522;7.266;2023-01-01T07:41:24;4.72;;;1.02;;
1446;SDS011;717;51.522;7.266;2023-01-01T07:43:55;3.05;;;1.15;;
1446;SDS011;717;51.522;7.266;2023-01-01T07:46:24;2.35;;;1.00;;
1446;SDS011;717;51.522;7.266;2023-01-01T07:48:52;5.55;;;1.33;;
1446;SDS011;717;51.522;7.266;2023-01-01T07:51:21;4.25;;;1.50;;
1446;SDS011;717;51.522;7.266;2023-01-01T07:53:49;3.40;;;1.17;;
1446;SDS011;717;51.522;7.266;2023-01-01T07:56:18;2.97;;;1.10;;
1446;SDS011;717;51.522;7.266;2023-01-01T07:58:46;2.15;;;1.17;;
1446;SDS011;717;51.522;7.266;2023-01-01T08:01:18;4.75;;;1.45;;
1446;SDS011;717;51.522;7.266;2023-01-01T08:03:50;2.05;;;1.17;;
1446;SDS011;717;51.522;7.266;2023-01-01T08:06:19;3.05;;;1.10;;
1446;SDS011;717;51.522;7.266;2023-01-01T08:08:48;2.58;;;0.93;;
1446;SDS011;717;51.522;7.266;2023-01-01T08:11:17;2.28;;;1.00;;
1446;SDS011;717;51.522;7.266;2023-01-01T08:13:45;2.22;;;0.95;;
1446;SDS011;717;51.522;7.266;2023-01-01T08:16:14;3.85;;;1.00;;
1446;SDS011;717;51.522;7.266;2023-01-01T08:18:45;3.83;;;1.73;;
1446;SDS011;717;51.522;7.266;2023-01-01T08:21:13;3.67;;;1.20;;
1446;SDS011;717;51.522;7.266;2023-01-01T08:23:42;4.90;;;1.30;;
1446;SDS011;717;51.522;7.266;2023-01-01T08:26:12;3.53;;;1.20;;
1446;SDS011;717;51.522;7.266;2023-01-01T08:28:42;3.13;;;1.30;;
1446;SDS011;717;51.522;7.266;2023-01-01T08:31:11;2.03;;;1.10;;
1446;SDS011;717;51.522;7.266;2023-01-01T08:33:40;4.53;;;1.40;;
1446;SDS011;717;51.522;7.266;2023-01-01T08:36:11;5.00;;;1.48;;
1446;SDS011;717;51.522;7.266;2023-01-01T08:38:40;4.20;;;1.42;;
1446;SDS011;717;51.522;7.266;2023-01-01T08:41:09;3.25;;;1.00;;
1446;SDS011;717;51.522;7.266;2023-01-01T08:43:38;3.03;;;1.33;;
1446;SDS011;717;51.522;7.266;2023-01-01T08:46:06;2.90;;;1.10;;
1446;SDS011;717;51.522;7.266;2023-01-01T08:48:35;4.28;;;1.10;;
1446;SDS011;717;51.522;7.266;2023-01-01T08:51:04;4.38;;;1.73;;
1446;SDS011;717;51.522;7.266;2023-01-01T08:53:35;4.15;;;1.50;;
1446;SDS011;717;51.522;7.266;2023-01-01T08:56:05;3.05;;;1.20;;
1446;SDS011;717;51.522;7.266;2023-01-01T08:58:35;4.18;;;1.30;;
1446;SDS011;717;51.522;7.266;2023-01-01T09:01:05;2.97;;;1.10;;
1446;SDS011;717;51.522;7.266;2023-01-01T09:03:34;5.57;;;1.20;;
1446;SDS011;717;51.522;7.266;2023-01-01T09:06:03;2.63;;;1.02;;
1446;SDS011;717;51.522;7.266;2023-01-01T09:08:32;3.00;;;1.13;;
1446;SDS011;717;51.522;7.266;2023-01-01T09:11:03;2.67;;;1.20;;
1446;SDS011;717;51.522;7.266;2023-01-01T09:13:32;3.72;;;1.30;;
1446;SDS011;717;51.522;7.266;2023-01-01T09:16:01;4.05;;;1.38;;
1446;SDS011;717;51.522;7.266;2023-01-01T09:18:29;4.30;;;1.40;;
1446;SDS011;717;51.522;7.266;2023-01-01T09:20:58;3.15;;;1.58;;
1446;SDS011;717;51.522;7.266;2023-01-01T09:23:26;3.90;;;1.20;;
1446;SDS011;717;51.522;7.266;2023-01-01T09:25:57;2.90;;;1.27;;
1446;SDS011;717;51.522;7.266;2023-01-01T09:28:29;2.38;;;1.10;;
1446;SDS011;717;51.522;7.266;2023-01-01T09:30:58;2.17;;;1.00;;
1446;SDS011;717;51.522;7.266;2023-01-01T09:33:27;3.03;;;1.23;;
1446;SDS011;717;51.522;7.266;2023-01-01T09:36:09;4.68;;;1.20;;
1446;SDS011;717;51.522;7.266;2023-01-01T09:38:39;3.55;;;1.33;;
1446;SDS011;717;51.522;7.266;2023-01-01T09:41:12;3.92;;;1.10;;
1446;SDS011;717;51.522;7.266;2023-01-01T09:43:48;5.53;;;1.48;;
1446;SDS011;717;51.522;7.266;2023-01-01T09:46:25;2.63;;;1.20;;
1446;SDS011;717;51.522;7.266;2023-01-01T09:48:54;2.22;;;0.77;;
1446;SDS011;717;51.522;7.266;2023-01-01T09:51:25;4.55;;;1.58;;
1446;SDS011;717;51.522;7.266;2023-01-01T09:54:01;2.22;;;1.13;;
1446;SDS011;717;51.522;7.266;2023-01-01T09:56:37;3.13;;;1.38;;
1446;SDS011;717;51.522;7.266;2023-01-01T09:59:09;4.88;;;1.20;;
1446;SDS011;717;51.522;7.266;2023-01-01T10:01:39;4.45;;;1.27;;
1446;SDS011;717;51.522;7.266;2023-01-01T10:04:17;2.60;;;1.02;;
1446;SDS011;717;51.522;7.266;2023-01-01T10:07:01;5.55;;;1.75;;
1446;SDS011;717;51.522;7.266;2023-01-01T10:09:49;3.45;;;1.27;;
1446;SDS011;717;51.522;7.266;2023-01-01T10:12:29;2.60;;;1.00;;
1446;SDS011;717;51.522;7.266;2023-01-01T10:15:04;3.67;;;1.55;;
1446;SDS011;717;51.522;7.266;2023-01-01T10:17:41;2.42;;;1.40;;
1446;SDS011;717;51.522;7.266;2023-01-01T10:20:14;4.45;;;1.40;;
1446;SDS011;717;51.522;7.266;2023-01-01T10:22:47;4.80;;;1.20;;
1446;SDS011;717;51.522;7.266;2023-01-01T10:25:20;3.88;;;1.10;;
1446;SDS011;717;51.522;7.266;2023-01-01T10:27:55;3.55;;;1.30;;
1446;SDS011;717;51.522;7.266;2023-01-01T10:30:26;3.83;;;1.35;;
1446;SDS011;717;51.522;7.266;2023-01-01T10:32:56;2.53;;;1.23;;
1446;SDS011;717;51.522;7.266;2023-01-01T10:35:26;2.80;;;1.00;;
1446;SDS011;717;51.522;7.266;2023-01-01T10:38:00;3.05;;;1.50;;
1446;SDS011;717;51.522;7.266;2023-01-01T10:40:30;4.30;;;1.55;;
1446;SDS011;717;51.522;7.266;2023-01-01T10:43:02;2.72;;;0.90;;
1446;SDS011;717;51.522;7.266;2023-01-01T10:45:37;4.30;;;1.20;;
1446;SDS011;717;51.522;7.266;2023-01-01T10:48:10;3.95;;;1.33;;
1446;SDS011;717;51.522;7.266;2023-01-01T10:50:42;6.30;;;1.38;;
1446;SDS011;717;51.522;7.266;2023-01-01T10:53:19;3.92;;;1.50;;
1446;SDS011;717;51.522;7.266;2023-01-01T10:55:56;4.75;;;1.50;;
1446;SDS011;717;51.522;7.266;2023-01-01T10:58:40;5.07;;;1.30;;
1446;SDS011;717;51.522;7.266;2023-01-01T11:01:12;5.38;;;1.58;;
1446;SDS011;717;51.522;7.266;2023-01-01T11:03:55;3.55;;;1.30;;
1446;SDS011;717;51.522;7.266;2023-01-01T11:06:25;3.88;;;1.02;;
1446;SDS011;717;51.522;7.266;2023-01-01T11:08:58;2.78;;;1.13;;
1446;SDS011;717;51.522;7.266;2023-01-01T11:11:31;5.32;;;1.55;;
1446;SDS011;717;51.522;7.266;2023-01-01T11:14:16;3.40;;;1.27;;
1446;SDS011;717;51.522;7.266;2023-01-01T11:16:47;3.80;;;1.75;;
1446;SDS011;717;51.522;7.266;2023-01-01T11:19:18;3.53;;;1.30;;
1446;SDS011;717;51.522;7.266;2023-01-01T11:21:50;2.42;;;1.10;;
1446;SDS011;717;51.522;7.266;2023-01-01T11:24:19;2.47;;;1.20;;
1446;SDS011;717;51.522;7.266;2023-01-01T11:26:50;3.58;;;1.00;;
1446;SDS011;717;51.522;7.266;2023-01-01T11:29:23;3.08;;;1.30;;
1446;SDS011;717;51.522;7.266;2023-01-01T11:31:54;4.35;;;1.23;;
1446;SDS011;717;51.522;7.266;2023-01-01T11:34:26;4.28;;;1.70;;
1446;SDS011;717;51.522;7.266;2023-01-01T11:37:10;3.28;;;1.27;;
1446;SDS011;717;51.522;7.266;2023-01-01T11:39:45;3.00;;;1.17;;
1446;SDS011;717;51.522;7.266;2023-01-01T11:42:18;4.18;;;1.15;;
1446;SDS011;717;51.522;7.266;2023-01-01T11:44:53;3.80;;;1.25;;
1446;SDS011;717;51.522;7.266;2023-01-01T11:47:25;3.88;;;1.17;;
1446;SDS011;717;51.522;7.266;2023-01-01T11:49:58;4.68;;;1.30;;
1446;SDS011;717;51.522;7.266;2023-01-01T11:52:34;2.65;;;1.00;;
1446;SDS011;717;51.522;7.266;2023-01-01T11:55:13;3.10;;;1.27;;
1446;SDS011;717;51.522;7.266;2023-01-01T11:57:49;4.22;;;1.10;;
1446;SDS011;717;51.522;7.266;2023-01-01T12:00:27;2.95;;;1.35;;
1446;SDS011;717;51.522;7.266;2023-01-01T12:03:03;3.75;;;1.15;;
1446;SDS011;717;51.522;7.266;2023-01-01T12:05:41;4.10;;;1.45;;
1446;SDS011;717;51.522;7.266;2023-01-01T12:08:15;3.13;;;1.15;;
1446;SDS011;717;51.522;7.266;2023-01-01T12:10:50;2.28;;;1.13;;
1446;SDS011;717;51.522;7.266;2023-01-01T12:13:23;4.20;;;1.20;;
1446;SDS011;717;51.522;7.266;2023-01-01T12:16:01;3.67;;;1.10;;
1446;SDS011;717;51.522;7.266;2023-01-01T12:18:38;3.72;;;1.05;;
1446;SDS011;717;51.522;7.266;2023-01-01T12:21:14;4.20;;;1.23;;
1446;SDS011;717;51.522;7.266;2023-01-01T12:23:47;3.60;;;1.33;;
1446;SDS011;717;51.522;7.266;2023-01-01T12:26:18;6.00;;;1.60;;
1446;SDS011;717;51.522;7.266;2023-01-01T12:29:06;6.38;;;1.70;;
1446;SDS011;717;51.522;7.266;2023-01-01T12:32:02;4.93;;;1.42;;
1446;SDS011;717;51.522;7.266;2023-01-01T12:34:37;4.05;;;1.27;;
1446;SDS011;717;51.522;7.266;2023-01-01T12:37:14;4.40;;;1.50;;
1446;SDS011;717;51.522;7.266;2023-01-01T12:40:04;2.60;;;1.08;;
1446;SDS011;717;51.522;7.266;2023-01-01T12:43:03;1.75;;;1.10;;
1446;SDS011;717;51.522;7.266;2023-01-01T12:51:36;4.28;;;1.17;;
1446;SDS011;717;51.522;7.266;2023-01-01T12:57:16;4.30;;;1.50;;
1446;SDS011;717;51.522;7.266;2023-01-01T12:59:55;5.20;;;1.40;;
1446;SDS011;717;51.522;7.266;2023-01-01T13:02:28;7.95;;;1.58;;
1446;SDS011;717;51.522;7.266;2023-01-01T13:05:03;6.75;;;1.60;;
1446;SDS011;717;51.522;7.266;2023-01-01T13:07:40;4.55;;;1.35;;
1446;SDS011;717;51.522;7.266;2023-01-01T13:10:17;4.85;;;1.70;;
1446;SDS011;717;51.522;7.266;2023-01-01T13:12:50;3.22;;;1.42;;
1446;SDS011;717;51.522;7.266;2023-01-01T13:18:22;3.63;;;1.30;;
1446;SDS011;717;51.522;7.266;2023-01-01T13:20:56;4.97;;;1.35;;
1446;SDS011;717;51.522;7.266;2023-01-01T13:23:43;5.32;;;1.58;;
1446;SDS011;717;51.522;7.266;2023-01-01T13:26:31;3.95;;;1.27;;
1446;SDS011;717;51.522;7.266;2023-01-01T13:32:06;3.22;;;1.17;;
1446;SDS011;717;51.522;7.266;2023-01-01T13:37:48;6.88;;;2.03;;
1446;SDS011;717;51.522;7.266;2023-01-01T13:40:30;5.30;;;1.20;;
1446;SDS011;717;51.522;7.266;2023-01-01T13:43:18;4.90;;;1.48;;
1446;SDS011;717;51.522;7.266;2023-01-01T13:45:58;4.78;;;1.42;;
1446;SDS011;717;51.522;7.266;2023-01-01T13:48:33;3.88;;;1.17;;
1446;SDS011;717;51.522;7.266;2023-01-01T13:51:19;5.30;;;1.33;;
1446;SDS011;717;51.522;7.266;2023-01-01T13:54:14;4.90;;;1.20;;
1446;SDS011;717;51.522;7.266;2023-01-01T13:57:01;4.95;;;1.30;;
1446;SDS011;717;51.522;7.266;2023-01-01T13:59:43;2.78;;;0.95;;
1446;SDS011;717;51.522;7.266;2023-01-01T14:02:20;3.92;;;1.20;;
1446;SDS011;717;51.522;7.266;2023-01-01T14:04:52;5.03;;;1.25;;
1446;SDS011;717;51.522;7.266;2023-01-01T14:07:27;4.40;;;1.30;;
1446;SDS011;717;51.522;7.266;2023-01-01T14:10:21;4.45;;;1.10;;
1446;SDS011;717;51.522;7.266;2023-01-01T14:12:55;4.50;;;1.13;;
1446;SDS011;717;51.522;7.266;2023-01-01T14:15:43;3.28;;;1.02;;
1446;SDS011;717;51.522;7.266;2023-01-01T14:18:21;4.72;;;1.55;;
1446;SDS011;717;51.522;7.266;2023-01-01T14:20:59;5.05;;;1.33;;
1446;SDS011;717;51.522;7.266;2023-01-01T14:23:29;6.03;;;1.77;;
1446;SDS011;717;51.522;7.266;2023-01-01T14:26:02;7.95;;;1.30;;
1446;SDS011;717;51.522;7.266;2023-01-01T14:28:34;3.42;;;1.48;;
1446;SDS011;717;51.522;7.266;2023-01-01T14:31:04;4.05;;;1.30;;
1446;SDS011;717;51.522;7.266;2023-01-01T14:33:37;4.20;;;1.30;;
1446;SDS011;717;51.522;7.266;2023-01-01T14:36:13;3.88;;;1.38;;
1446;SDS011;717;51.522;7.266;2023-01-01T14:38:45;4.28;;;1.40;;
1446;SDS011;717;51.522;7.266;2023-01-01T14:41:18;6.25;;;1.40;;
1446;SDS011;717;51.522;7.266;2023-01-01T14:43:51;2.45;;;1.00;;
1446;SDS011;717;51.522;7.266;2023-01-01T14:46:23;3.22;;;1.40;;
1446;SDS011;717;51.522;7.266;2023-01-01T14:48:54;5.88;;;1.52;;
1446;SDS011;717;51.522;7.266;2023-01-01T14:51:25;4.72;;;1.35;;
1446;SDS011;717;51.522;7.266;2023-01-01T14:53:57;5.03;;;1.40;;
1446;SDS011;717;51.522;7.266;2023-01-01T14:56:30;3.67;;;1.33;;
1446;SDS011;717;51.522;7.266;2023-01-01T14:59:02;4.00;;;1.13;;
1446;SDS011;717;51.522;7.266;2023-01-01T15:01:33;4.22;;;1.45;;
1446;SDS011;717;51.522;7.266;2023-01-01T15:04:04;3.95;;;1.48;;
1446;SDS011;717;51.522;7.266;2023-01-01T15:06:51;4.00;;;1.42;;
1446;SDS011;717;51.522;7.266;2023-01-01T15:09:20;5.70;;;1.50;;
1446;SDS011;717;51.522;7.266;2023-01-01T15:11:52;4.20;;;1.30;;
1446;SDS011;717;51.522;7.266;2023-01-01T15:14:29;3.75;;;1.48;;
1446;SDS011;717;51.522;7.266;2023-01-01T15:17:00;4.63;;;1.67;;
1446;SDS011;717;51.522;7.266;2023-01-01T15:19:29;3.70;;;1.45;;
1446;SDS011;717;51.522;7.266;2023-01-01T15:21:59;5.00;;;1.40;;
1446;SDS011;717;51.522;7.266;2023-01-01T15:24:27;4.45;;;1.40;;
1446;SDS011;717;51.522;7.266;2023-01-01T15:27:00;2.70;;;1.35;;
1446;SDS011;717;51.522;7.266;2023-01-01T15:29:32;3.42;;;1.67;;
1446;SDS011;717;51.522;7.266;2023-01-01T15:32:03;4.38;;;1.48;;
1446;SDS011;717;51.522;7.266;2023-01-01T15:34:34;3.60;;;1.20;;
1446;SDS011;717;51.522;7.266;2023-01-01T15:37:09;5.20;;;1.60;;
1446;SDS011;717;51.522;7.266;2023-01-01T15:39:46;3.53;;;1.38;;
1446;SDS011;717;51.522;7.266;2023-01-01T15:42:26;3.75;;;1.30;;
1446;SDS011;717;51.522;7.266;2023-01-01T15:45:12;4.05;;;1.30;;
1446;SDS011;717;51.522;7.266;2023-01-01T15:47:42;2.35;;;1.15;;
1446;SDS011;717;51.522;7.266;2023-01-01T15:50:17;2.38;;;1.52;;
1446;SDS011;717;51.522;7.266;2023-01-01T15:52:48;3.65;;;1.52;;
1446;SDS011;717;51.522;7.266;2023-01-01T15:55:18;4.85;;;1.55;;
1446;SDS011;717;51.522;7.266;2023-01-01T15:57:49;4.65;;;1.35;;
1446;SDS011;717;51.522;7.266;2023-01-01T16:00:20;5.32;;;1.60;;
1446;SDS011;717;51.522;7.266;2023-01-01T16:02:50;4.13;;;1.50;;
1446;SDS011;717;51.522;7.266;2023-01-01T16:05:21;2.88;;;1.27;;
1446;SDS011;717;51.522;7.266;2023-01-01T16:07:58;2.78;;;1.60;;
1446;SDS011;717;51.522;7.266;2023-01-01T16:10:29;4.90;;;1.52;;
1446;SDS011;717;51.522;7.266;2023-01-01T16:13:01;4.55;;;1.58;;
1446;SDS011;717;51.522;7.266;2023-01-01T16:15:29;5.20;;;1.50;;
1446;SDS011;717;51.522;7.266;2023-01-01T16:17:58;3.55;;;1.60;;
1446;SDS011;717;51.522;7.266;2023-01-01T16:20:26;2.88;;;1.48;;
1446;SDS011;717;51.522;7.266;2023-01-01T16:22:55;3.78;;;1.58;;